Briefing drone pour Lamastre

Rechercher une autre localisation

Conditions de vol :


Nous sommes le : Jeudi 30 juin 2022
Il est 15:59 UTC (17:59 LT)

Lever de soleil : 03:32 UTC (05:32 LT)
Coucher de soleil : 19:58 UTC (21:58 LT)

Météo

L'essentiel des conditions de vol

VIGILANCE MÉTÉO FRANCE - Ardèche (07)
Vigilance Jaune : Orages
METAR de LFLU
LFLU 301530Z AUTO 20018KT CAVOK 29/16 Q1010

Date d'émission: 30/06/2022
Heure d'émission: 15:30 UTC
Vent: 200° pour 18 KT (33 km/h)
Visibilité horizontale: > 10 km
Plafond : Plafond et visibilité OK (CAVOK)
Température: 29 °C
Point de rosée: 16 °C
Humidité: 45%
Pression (QNH): 1010 hPa
Prévision 24h pour Valence (16 km)
Vent : 3° pour 7 KT (25 km/h)
Temperature Maxi: 24 °C
Temperature Min: 24 °C
Humidité : 38%
Condition : Partiellement nuageux



Warning: count(): Parameter must be an array or an object that implements Countable in /homepages/6/d509196549/htdocs/droneoxygene/briefing.php on line 743
WEBCAM POUR LAMASTRE

Réglementation

Voler en sécurité

CARTES AERONAUTIQUE 1/500.000
CARTES VAC (LFLU)
SUP AIP




Chargement des AIP...
NOTAM (LAMASTRE + Terrain à proximité / FIR )




Chargement des NOTAMS...
CONTACT PREFECTURE 07


Avertissement : Les données mises à disposition sont indicatives. Oxygène Drone ne pourra être tenu responsable de dégâts causés aux biens et aux personnes.